.
WxDataArchive / Data Records for 2008-11-13
2008-11-12 November 2008 2008-11-14

Data Records for Thursday, 13 November 2008

Time	Temp	Chill	HIndex	Humid	Dewpt	 Wind 	HiWind	WindDir	Rain 	Barom 
-----	----	-----	------	-----	-----	------	------	-------	-----	----- 
00:00	48.2	48.2	48.2	96	47.1	1	3	112	0.00	29.833 
00:05	48.2	48.2	48.2	96	47.1	1	5	112	0.01	29.830 
00:10	48.2	48.2	48.2	96	47.1	0	3	68	0.01	29.828 
00:15	48.3	48.3	48.3	96	47.2	1	3	90	0.00	29.825 
00:20	48.3	48.3	48.3	96	47.2	1	3	135	0.01	29.820 
00:25	48.5	48.5	48.5	96	47.4	1	5	90	0.01	29.816 
00:30	48.5	48.5	48.5	96	47.4	1	3	135	0.00	29.815 
00:35	48.5	48.5	48.5	96	47.4	1	4	112	0.01	29.814 
00:40	48.6	48.6	48.6	96	47.5	0	4	90	0.00	29.813 
00:45	48.6	48.6	48.6	96	47.5	1	2	90	0.01	29.809 
00:50	48.6	48.6	48.6	96	47.5	0	3	158	0.01	29.805 
00:55	48.6	48.6	48.6	96	47.5	1	3	135	0.00	29.801 
01:00	48.6	48.6	48.6	96	47.5	1	3	112	0.01	29.800 
01:05	48.6	48.6	48.6	96	47.5	0	2	112	0.01	29.798 
01:10	48.8	48.8	48.8	96	47.7	1	3	112	0.01	29.798 
01:15	48.8	48.8	48.8	96	47.7	0	3	112	0.01	29.793 
01:20	48.8	48.8	48.8	96	47.7	0	3	135	0.00	29.787 
01:25	48.8	48.8	48.8	96	47.7	0	2	135	0.00	29.785 
01:30	48.8	48.8	48.8	96	47.7	0	2	135	0.00	29.783 
01:35	48.8	48.8	48.8	96	47.7	0	2	135	0.01	29.782 
01:40	48.8	48.8	48.8	96	47.7	0	2	292	0.00	29.782 
01:45	48.9	48.9	48.9	96	47.8	1	4	112	0.00	29.781 
01:50	48.9	48.9	48.9	96	47.8	1	4	90	0.01	29.780 
01:55	48.9	48.9	48.9	96	47.8	0	2	45	0.00	29.780 
02:00	48.9	48.9	48.9	96	47.8	0	2	0	0.00	29.778 
02:05	48.9	48.9	48.9	96	47.8	1	2	0	0.01	29.775 
02:10	48.9	48.9	48.9	96	47.8	1	3	0	0.00	29.774 
02:15	49.1	49.1	49.1	96	48.0	0	2	68	0.00	29.770 
02:20	49.1	49.1	49.1	96	48.0	1	3	68	0.01	29.770 
02:25	49.1	49.1	49.1	96	48.0	1	3	338	0.00	29.769 
02:30	49.1	49.1	49.1	96	48.0	1	3	90	0.00	29.766 
02:35	49.1	49.1	49.1	96	48.0	1	4	292	0.01	29.765 
02:40	49.1	49.1	49.1	96	48.0	1	3	292	0.00	29.764 
02:45	49.1	49.1	49.1	96	48.0	1	3	315	0.00	29.760 
02:50	49.1	49.1	49.1	96	48.0	1	4	292	0.01	29.755 
02:55	49.1	49.1	49.1	96	48.0	0	2	292	0.00	29.751 
03:00	49.1	49.1	49.1	96	48.0	0	2	292	0.00	29.749 
03:05	49.1	49.1	49.1	96	48.0	1	3	225	0.00	29.751 
03:10	49.1	49.1	49.1	96	48.0	1	4	248	0.00	29.750 
03:15	49.1	49.1	49.1	96	48.0	0	4	248	0.01	29.748 
03:20	49.1	49.1	49.1	96	48.0	1	3	248	0.00	29.749 
03:25	49.1	49.1	49.1	96	48.0	1	4	248	0.00	29.748 
03:30	49.2	49.2	49.2	96	48.1	1	9	225	0.00	29.743 
03:35	49.2	49.2	49.2	96	48.1	0	3	225	0.00	29.736 
03:40	49.2	49.2	49.2	96	48.1	1	4	225	0.00	29.734 
03:45	49.2	49.2	49.2	96	48.1	1	4	248	0.00	29.734 
03:50	49.2	49.2	49.2	96	48.1	1	3	248	0.00	29.736 
03:55	49.2	49.2	49.2	96	48.1	1	3	248	0.00	29.736 
04:00	49.2	49.2	49.2	96	48.1	1	5	248	0.00	29.745 
04:05	49.2	49.2	49.2	96	48.1	2	6	270	0.00	29.744 
04:10	49.2	49.2	49.2	96	48.1	1	3	270	0.00	29.739 
04:15	49.4	49.4	49.4	96	48.3	1	5	248	0.00	29.730 
04:20	49.4	49.4	49.4	96	48.3	2	6	248	0.00	29.735 
04:25	49.4	49.4	49.4	96	48.3	3	8	248	0.01	29.738 
04:30	49.4	49.4	49.4	96	48.3	2	6	248	0.00	29.738 
04:35	49.4	49.4	49.4	96	48.3	2	6	248	0.00	29.738 
04:40	49.4	49.4	49.4	96	48.3	2	10	225	0.00	29.740 
04:45	49.5	49.5	49.5	96	48.4	2	6	248	0.00	29.743 
04:50	49.5	49.5	49.5	96	48.4	2	7	248	0.00	29.743 
04:55	49.5	49.5	49.5	96	48.4	3	7	248	0.00	29.743 
05:00	49.5	49.5	49.5	96	48.4	2	7	248	0.00	29.750 
05:05	49.5	49.5	49.5	96	48.4	2	6	248	0.00	29.753 
05:10	49.5	49.5	49.5	96	48.4	2	6	248	0.00	29.752 
05:15	49.5	49.5	49.5	96	48.4	2	6	248	0.00	29.754 
05:20	49.5	49.5	49.5	96	48.4	3	11	248	0.00	29.754 
05:25	49.5	49.5	49.5	96	48.4	2	11	248	0.00	29.756 
05:30	49.5	49.5	49.5	96	48.4	3	9	248	0.00	29.758 
05:35	49.4	49.4	49.4	96	48.3	3	6	248	0.00	29.757 
05:40	49.4	49.4	49.4	96	48.3	3	10	248	0.00	29.759 
05:45	49.2	49.2	49.2	96	48.1	3	7	248	0.00	29.763 
05:50	49.2	47.9	49.2	96	48.1	4	12	248	0.00	29.762 
05:55	49.2	49.2	49.2	96	48.1	3	7	248	0.00	29.758 
06:00	49.2	49.2	49.2	95	47.8	2	5	248	0.00	29.767 
06:05	49.2	49.2	49.2	95	47.8	3	9	248	0.00	29.768 
06:10	49.2	49.2	49.2	95	47.8	2	7	248	0.00	29.770 
06:15	49.2	49.2	49.2	95	47.8	2	6	248	0.00	29.770 
06:20	49.2	49.2	49.2	95	47.8	3	10	248	0.00	29.770 
06:25	49.1	49.1	49.1	95	47.7	3	7	248	0.00	29.771 
06:30	49.1	49.1	49.1	95	47.7	3	8	248	0.00	29.770 
06:35	49.1	49.1	49.1	95	47.7	2	6	248	0.00	29.770 
06:40	48.9	47.6	48.9	95	47.5	4	7	248	0.00	29.770 
06:45	48.9	48.9	48.9	95	47.5	3	6	248	0.00	29.771 
06:50	48.9	48.9	48.9	95	47.5	2	5	248	0.00	29.771 
06:55	48.9	48.9	48.9	95	47.5	1	3	248	0.00	29.773 
07:00	48.8	48.8	48.8	95	47.4	2	7	248	0.00	29.776 
07:05	48.8	48.8	48.8	95	47.4	1	4	248	0.00	29.778 
07:10	48.6	48.6	48.6	95	47.2	2	7	248	0.00	29.778 
07:15	48.5	48.5	48.5	95	47.1	3	6	248	0.00	29.781 
07:20	48.5	48.5	48.5	95	47.1	1	5	248	0.00	29.783 
07:25	48.5	48.5	48.5	95	47.1	1	4	248	0.00	29.778 
07:30	48.5	48.5	48.5	95	47.1	2	4	248	0.00	29.785 
07:35	48.5	48.5	48.5	95	47.1	2	6	248	0.00	29.785 
07:40	48.5	48.5	48.5	95	47.1	3	7	248	0.00	29.786 
07:45	48.5	48.5	48.5	95	47.1	2	7	248	0.00	29.785 
07:50	48.5	48.5	48.5	95	47.1	1	4	248	0.00	29.784 
07:55	48.5	48.5	48.5	95	47.1	1	4	248	0.00	29.782 
08:00	48.5	48.5	48.5	95	47.1	1	4	248	0.00	29.785 
08:05	48.6	48.6	48.6	95	47.2	1	3	248	0.00	29.786 
08:10	48.6	48.6	48.6	95	47.2	2	7	248	0.00	29.787 
08:15	48.6	48.6	48.6	95	47.2	2	5	248	0.00	29.788 
08:20	48.6	48.6	48.6	95	47.2	2	5	248	0.00	29.790 
08:25	48.8	48.8	48.8	95	47.4	1	4	248	0.00	29.793 
08:30	48.8	48.8	48.8	94	47.1	1	5	248	0.00	29.792 
08:35	48.8	48.8	48.8	94	47.1	1	3	248	0.00	29.796 
08:40	48.9	48.9	48.9	94	47.2	1	3	248	0.00	29.801 
08:45	48.9	48.9	48.9	94	47.2	1	5	248	0.00	29.799 
08:50	48.9	48.9	48.9	94	47.2	2	6	248	0.00	29.796 
08:55	48.9	48.9	48.9	94	47.2	1	5	248	0.00	29.791 
09:00	48.9	48.9	48.9	94	47.2	2	6	248	0.00	29.793 
09:05	48.9	48.9	48.9	94	47.2	1	5	248	0.00	29.799 
09:10	49.1	49.1	49.1	93	47.2	1	4	248	0.00	29.796 
09:15	49.2	49.2	49.2	93	47.3	1	4	248	0.00	29.790 
09:20	49.6	49.6	49.6	93	47.7	2	5	248	0.00	29.791 
09:25	49.9	49.9	49.9	93	48.0	1	5	248	0.00	29.792 
09:30	49.9	49.9	49.9	92	47.7	2	7	270	0.00	29.793 
09:35	49.8	49.8	49.8	92	47.6	2	9	248	0.00	29.793 
09:40	49.6	49.6	49.6	91	47.1	3	6	248	0.00	29.793 
09:45	49.6	49.6	49.6	91	47.1	2	7	248	0.00	29.793 
09:50	49.8	49.8	49.8	91	47.3	1	5	248	0.00	29.792 
09:55	49.8	49.8	49.8	90	47.0	2	6	248	0.00	29.796 
10:00	49.9	49.9	49.9	90	47.1	2	6	225	0.00	29.789 
10:05	50.1	50.1	50.1	90	47.3	3	7	248	0.00	29.790 
10:10	50.4	50.4	50.4	89	47.3	3	9	248	0.00	29.793 
10:15	50.5	50.5	50.5	89	47.4	2	6	248	0.00	29.794 
10:20	50.5	50.5	50.5	88	47.1	3	11	248	0.00	29.794 
10:25	50.5	50.5	50.5	88	47.1	3	7	248	0.00	29.795 
10:30	50.5	50.5	50.5	88	47.1	3	6	248	0.00	29.788 
10:35	50.5	50.5	50.5	88	47.1	3	7	248	0.00	29.792 
10:40	50.8	50.8	50.8	87	47.1	3	10	248	0.00	29.795 
10:45	51.1	51.1	51.1	86	47.1	3	11	248	0.00	29.789 
10:50	51.1	51.1	51.1	86	47.1	3	7	248	0.00	29.790 
10:55	51.0	51.0	51.0	85	46.7	4	10	248	0.00	29.797 
11:00	51.0	51.0	51.0	85	46.7	3	11	248	0.00	29.798 
11:05	51.0	51.0	51.0	84	46.3	4	11	248	0.00	29.799 
11:10	51.0	51.0	51.0	83	46.0	5	16	270	0.00	29.801 
11:15	51.1	51.1	51.1	82	45.8	4	10	248	0.00	29.800 
11:20	51.4	51.4	51.4	82	46.1	4	10	248	0.00	29.802 
11:25	51.6	51.6	51.6	81	46.0	3	7	248	0.00	29.800 
11:30	51.6	51.6	51.6	80	45.6	5	13	248	0.00	29.801 
11:35	51.6	51.6	51.6	79	45.3	4	12	248	0.00	29.799 
11:40	51.7	51.7	51.7	78	45.1	4	13	248	0.00	29.799 
11:45	51.7	51.7	51.7	76	44.4	4	13	248	0.00	29.791 
11:50	51.7	51.7	51.7	76	44.4	5	12	270	0.00	29.789 
11:55	51.6	51.6	51.6	74	43.6	5	14	248	0.00	29.784 
12:00	51.6	51.6	51.6	75	43.9	4	11	248	0.00	29.785 
12:05	51.6	51.6	51.6	75	43.9	4	9	248	0.00	29.784 
12:10	51.7	51.7	51.7	76	44.4	2	7	225	0.00	29.781 
12:15	51.9	51.9	51.9	77	44.9	4	10	248	0.00	29.776 
12:20	52.2	52.2	52.2	77	45.2	3	6	248	0.00	29.775 
12:25	52.2	52.2	52.2	77	45.2	3	12	248	0.00	29.770 
12:30	52.2	52.2	52.2	77	45.2	2	9	248	0.00	29.772 
12:35	52.2	52.2	52.2	78	45.5	3	6	270	0.00	29.773 
12:40	52.3	52.3	52.3	77	45.3	3	6	248	0.00	29.770 
12:45	52.6	52.6	52.6	76	45.3	4	7	248	0.00	29.767 
12:50	52.6	52.6	52.6	74	44.6	4	10	270	0.00	29.765 
12:55	52.8	52.8	52.8	74	44.7	4	13	270	0.00	29.766 
13:00	52.8	52.8	52.8	73	44.4	4	7	248	0.00	29.764 
13:05	52.9	52.9	52.9	72	44.1	5	15	248	0.00	29.765 
13:10	52.9	52.9	52.9	72	44.1	4	11	248	0.00	29.762 
13:15	52.9	52.9	52.9	73	44.5	3	11	225	0.00	29.761 
13:20	52.9	52.9	52.9	73	44.5	3	7	248	0.00	29.759 
13:25	52.9	52.9	52.9	73	44.5	4	10	248	0.00	29.761 
13:30	52.8	52.8	52.8	72	44.0	5	11	248	0.00	29.760 
13:35	52.8	52.8	52.8	73	44.4	3	10	248	0.00	29.759 
13:40	52.8	52.8	52.8	73	44.4	3	7	248	0.00	29.755 
13:45	52.9	52.9	52.9	73	44.5	3	10	248	0.00	29.758 
13:50	53.1	53.1	53.1	73	44.7	2	5	248	0.00	29.753 
13:55	53.2	53.2	53.2	73	44.8	2	4	248	0.00	29.750 
14:00	53.2	53.2	53.2	72	44.4	3	7	248	0.00	29.751 
14:05	53.1	53.1	53.1	73	44.7	3	7	248	0.00	29.751 
14:10	53.2	53.2	53.2	73	44.8	3	7	248	0.00	29.749 
14:15	53.2	53.2	53.2	74	45.1	3	10	248	0.00	29.745 
14:20	53.3	53.3	53.3	74	45.2	3	7	248	0.00	29.742 
14:25	53.5	53.5	53.5	74	45.4	2	4	248	0.00	29.741 
14:30	53.5	53.5	53.5	73	45.1	3	9	248	0.00	29.735 
14:35	53.5	53.5	53.5	74	45.4	3	7	270	0.00	29.734 
14:40	53.5	53.5	53.5	74	45.4	4	13	248	0.00	29.734 
14:45	53.5	53.5	53.5	74	45.4	5	13	248	0.00	29.730 
14:50	53.6	53.6	53.6	74	45.5	4	8	248	0.00	29.728 
14:55	53.8	53.8	53.8	75	46.1	3	9	248	0.00	29.724 
15:00	54.1	54.1	54.1	74	46.0	3	11	270	0.00	29.728 
15:05	53.9	53.9	53.9	75	46.2	2	10	248	0.00	29.731 
15:10	53.9	53.9	53.9	76	46.5	1	7	248	0.00	29.727 
15:15	53.9	53.9	53.9	75	46.2	2	9	292	0.00	29.720 
15:20	53.8	53.8	53.8	74	45.7	3	13	248	0.00	29.718 
15:25	53.9	53.9	53.9	72	45.1	3	11	225	0.00	29.719 
15:30	53.9	53.9	53.9	71	44.7	4	10	248	0.00	29.721 
15:35	53.6	53.6	53.6	72	44.8	2	5	248	0.00	29.720 
15:40	53.5	53.5	53.5	73	45.1	4	13	248	0.00	29.718 
15:45	53.2	53.2	53.2	74	45.1	2	7	225	0.00	29.719 
15:50	53.2	53.2	53.2	75	45.5	3	7	248	0.00	29.717 
15:55	53.1	53.1	53.1	75	45.4	1	4	248	0.00	29.718 
16:00	53.1	53.1	53.1	75	45.4	3	9	248	0.00	29.720 
16:05	53.2	53.2	53.2	75	45.5	3	7	248	0.00	29.720 
16:10	53.2	53.2	53.2	75	45.5	2	7	248	0.00	29.722 
16:15	53.2	53.2	53.2	76	45.8	1	5	248	0.00	29.719 
16:20	53.2	53.2	53.2	77	46.2	1	4	292	0.00	29.715 
16:25	53.2	53.2	53.2	76	45.8	2	11	248	0.00	29.716 
16:30	53.1	53.1	53.1	76	45.7	3	7	248	0.00	29.719 
16:35	53.1	53.1	53.1	76	45.7	3	7	248	0.00	29.721 
16:40	53.1	53.1	53.1	76	45.7	1	5	292	0.00	29.725 
16:45	52.9	52.9	52.9	76	45.5	4	10	248	0.00	29.719 
16:50	52.8	52.8	52.8	77	45.8	1	4	112	0.00	29.711 
16:55	52.3	52.3	52.3	77	45.3	2	7	90	0.00	29.703 
17:00	52.2	52.2	52.2	78	45.5	2	7	270	0.00	29.704 
17:05	51.9	51.9	51.9	78	45.3	2	6	248	0.00	29.704 
17:10	51.6	51.6	51.6	79	45.3	1	6	248	0.00	29.703 
17:15	51.4	51.4	51.4	79	45.1	2	7	248	0.00	29.705 
17:20	51.3	51.3	51.3	79	45.0	2	6	292	0.00	29.704 
17:25	51.1	51.1	51.1	79	44.8	2	6	270	0.00	29.704 
17:30	51.0	51.0	51.0	79	44.7	2	10	270	0.00	29.704 
17:35	50.8	50.8	50.8	79	44.5	1	5	270	0.00	29.704 
17:40	50.7	50.7	50.7	80	44.8	1	6	270	0.00	29.704 
17:45	50.5	50.5	50.5	81	44.9	1	5	248	0.00	29.706 
17:50	50.4	50.4	50.4	81	44.8	1	5	248	0.00	29.707 
17:55	50.2	50.2	50.2	81	44.6	1	3	248	0.00	29.707 
18:00	50.1	50.1	50.1	82	44.8	1	3	248	0.00	29.707 
18:05	50.1	50.1	50.1	83	45.1	1	4	248	0.00	29.708 
18:10	49.9	49.9	49.9	83	44.9	1	5	248	0.00	29.706 
18:15	49.8	49.8	49.8	84	45.2	1	4	248	0.00	29.708 
18:20	49.8	49.8	49.8	84	45.2	1	4	248	0.00	29.707 
18:25	49.8	49.8	49.8	84	45.2	1	6	225	0.00	29.707 
18:30	49.8	49.8	49.8	85	45.5	1	4	270	0.00	29.705 
18:35	49.6	49.6	49.6	85	45.3	1	6	248	0.00	29.704 
18:40	49.6	49.6	49.6	85	45.3	1	3	45	0.00	29.700 
18:45	49.6	49.6	49.6	86	45.6	1	5	248	0.00	29.701 
18:50	49.6	49.6	49.6	86	45.6	1	5	270	0.00	29.702 
18:55	49.6	49.6	49.6	86	45.6	1	5	68	0.00	29.694 
19:00	49.6	49.6	49.6	86	45.6	2	5	90	0.00	29.691 
19:05	49.6	49.6	49.6	86	45.6	1	5	68	0.00	29.691 
19:10	49.5	49.5	49.5	86	45.5	1	5	270	0.00	29.690 
19:15	49.5	49.5	49.5	87	45.8	1	5	270	0.00	29.691 
19:20	49.5	49.5	49.5	87	45.8	1	3	225	0.00	29.691 
19:25	49.5	49.5	49.5	87	45.8	1	5	90	0.00	29.689 
19:30	49.4	49.4	49.4	87	45.7	1	4	292	0.00	29.689 
19:35	49.2	49.2	49.2	88	45.8	1	4	248	0.00	29.685 
19:40	49.4	49.4	49.4	88	46.0	1	7	225	0.00	29.682 
19:45	49.4	49.4	49.4	88	46.0	1	4	68	0.00	29.678 
19:50	49.4	49.4	49.4	88	46.0	1	4	45	0.00	29.676 
19:55	49.4	49.4	49.4	88	46.0	1	4	225	0.00	29.676 
20:00	49.5	49.5	49.5	88	46.1	1	5	270	0.00	29.676 
20:05	49.5	49.5	49.5	88	46.1	1	3	248	0.00	29.675 
20:10	49.6	49.6	49.6	88	46.2	1	4	248	0.00	29.673 
20:15	49.8	49.8	49.8	88	46.4	2	6	270	0.00	29.672 
20:20	49.9	49.9	49.9	88	46.5	2	9	248	0.00	29.673 
20:25	50.2	50.2	50.2	87	46.5	3	9	248	0.00	29.674 
20:30	50.4	50.4	50.4	86	46.4	2	7	248	0.00	29.671 
20:35	50.4	50.4	50.4	86	46.4	2	7	248	0.00	29.665 
20:40	50.5	50.5	50.5	86	46.5	2	5	248	0.00	29.666 
20:45	50.7	50.7	50.7	86	46.7	3	12	248	0.00	29.669 
20:50	50.8	50.8	50.8	85	46.5	2	5	248	0.00	29.670 
20:55	50.8	50.8	50.8	85	46.5	2	4	270	0.00	29.667 
21:00	50.8	50.8	50.8	86	46.8	2	6	248	0.00	29.667 
21:05	50.7	50.7	50.7	86	46.7	1	5	248	0.00	29.666 
21:10	50.7	50.7	50.7	86	46.7	2	5	248	0.00	29.664 
21:15	50.7	50.7	50.7	86	46.7	1	6	248	0.00	29.666 
21:20	50.7	50.7	50.7	86	46.7	2	7	248	0.00	29.667 
21:25	50.8	50.8	50.8	86	46.8	2	6	248	0.00	29.665 
21:30	50.8	50.8	50.8	86	46.8	1	4	248	0.00	29.664 
21:35	50.8	50.8	50.8	86	46.8	1	6	248	0.00	29.664 
21:40	51.0	51.0	51.0	86	47.0	2	7	248	0.00	29.661 
21:45	51.1	51.1	51.1	86	47.1	1	5	248	0.00	29.660 
21:50	51.3	51.3	51.3	86	47.3	2	5	248	0.00	29.661 
21:55	51.3	51.3	51.3	86	47.3	2	6	248	0.00	29.661 
22:00	51.4	51.4	51.4	86	47.4	2	7	315	0.00	29.660 
22:05	51.6	51.6	51.6	86	47.5	2	14	248	0.00	29.661 
22:10	51.9	51.9	51.9	85	47.5	1	7	248	0.00	29.662 
22:15	51.9	51.9	51.9	85	47.5	2	9	248	0.00	29.657 
22:20	52.0	52.0	52.0	85	47.6	3	7	248	0.00	29.656 
22:25	52.2	52.2	52.2	85	47.8	2	9	248	0.00	29.655 
22:30	52.3	52.3	52.3	84	47.6	2	6	270	0.00	29.649 
22:35	52.3	52.3	52.3	84	47.6	2	7	248	0.00	29.643 
22:40	52.5	52.5	52.5	84	47.8	3	11	248	0.00	29.645 
22:45	52.8	52.8	52.8	84	48.1	3	11	248	0.00	29.654 
22:50	52.9	52.9	52.9	83	47.9	3	9	248	0.00	29.653 
22:55	53.1	53.1	53.1	83	48.1	4	12	248	0.00	29.652 
23:00	53.2	53.2	53.2	83	48.2	3	9	248	0.00	29.653 
23:05	53.3	53.3	53.3	82	47.9	3	9	248	0.00	29.648 
23:10	53.3	53.3	53.3	82	47.9	2	5	248	0.00	29.644 
23:15	53.3	53.3	53.3	82	47.9	3	9	248	0.00	29.640 
23:20	53.5	53.5	53.5	82	48.1	2	7	248	0.00	29.639 
23:25	53.5	53.5	53.5	81	47.8	2	6	248	0.00	29.638 
23:30	53.6	53.6	53.6	81	47.9	3	6	248	0.00	29.638 
23:35	53.6	53.6	53.6	81	47.9	2	9	225	0.00	29.639 
23:40	53.6	53.6	53.6	81	47.9	3	7	248	0.00	29.640 
23:45	53.8	53.8	53.8	81	48.1	3	9	248	0.00	29.637 
23:50	53.8	53.8	53.8	81	48.1	2	7	270	0.00	29.635 
23:55	53.9	53.9	53.9	80	47.9	3	14	248	0.00	29.623 

CoCoRaHS
IN-AL-39
A2 Web Hosting
Creative Commons License
GoDaddy
Look for:

loaded 2017-10-18 22:01:38 • last modified 2010-11-18 10:43:29
Privacy PolicyDisclaimer
• wx.awcolley.com is powered by PmWiki v.2002016 •
• all content (unless otherwise noted) © 2017 A W Colley